Monterey Peninsula Airport
KMRY : now visible

Airfield :











YOU CAN JOIN US ON...

 
LOGIN :

Register | Disclaimer

   EN    FR    IT 

 









Legend :    VFR   Marginal VFR   IFR   Intensive IFR   Very Intensive IFR
Visi :
Ceiling :
>= 8 km
>= 3000ft
5 to 8 km
1000 to 3000 ft
1500m to 5 km
500 to 1000 ft
800 to 1500m
200 to 500 ft
< 800m
< 200 ft
Symbols :   Thunderstorms  Fog  Heavy snow  Heavy precipitations  Wind > 20 kt






- Airport Elevation : 257 ft
- IATA code : MRY


KMRY - Monterey Peninsula

CURRENT METAR :
  • 061454Z 11004KT 10SM CLR 11/09 A3004 RMK AO2 SLP183 T01060089 58001

EXPIRED METARs :
  • 061354Z VRB03KT 10SM BKN047 12/11 A3004 RMK AO2 SLP183 T01220106
  • 061254Z AUTO 16004KT 10SM OVC046 12/11 A3005 RMK AO2 SLP186 T01220106

TAF KMRY
Valid from the 06 at 12:00 until the 07 at 12:00 UTC


061140Z 0612/0712 VRB03KT P6SM FEW045 OVC200
FM061600 13005KT P6SM FEW030 SCT050 OVC200
FM062100 16011G20KT P6SM SCT035 BKN050 OVC180
FM062300 16015G22KT P6SM BKN035 OVC050
FM070400 16013G22KT P6SM -SHRA OVC025
FM071000 16010KT P6SM -SHRA OVC020



MET'MAP, your aeronautical weather chart ! - Copyright ORBIFLY December 2007 - Disclaimer

ORBIFLY MET'MAP TEAM :

Programming & Development : Alexandra Zaïnal
Concept & original design : Baudouin d'Aumeries
Assistance for programming : Marc-Olivier Méhu
Technical & hardware support : Manuel Goepfert

Contact : metmap@orbifly.com




SOURCES & CREDITS :

   NOAA       Earth
Advisory